Time;durP1;ratioP1;P1;durP2;ratioP2;P2;SDS_P1;SDS_P2;PMS_P1;PMS_P2;Temp;Humidity;BMP_temperature;BMP_pressure;BME280_temperature;BME280_humidity;BME280_pressure;Samples;Min_cycle;Max_cycle;Signal;HPM_P1;HPM_P2
2022/07/09 00:02:24;;;;;;;3.42;1.60;;;16.30;99.90;;;;;;5024828;28;20241;-78
2022/07/09 00:05:13;;;;;;;3.33;1.90;;;16.40;99.90;;;;;;5022496;28;20376;-78
2022/07/09 00:08:05;;;;;;;4.70;3.05;;;16.40;99.90;;;;;;5006975;28;20776;-78
2022/07/09 00:10:54;;;;;;;4.95;1.90;;;16.30;99.90;;;;;;5019614;28;20844;-79
2022/07/09 00:13:42;;;;;;;3.53;1.77;;;16.40;99.90;;;;;;5018476;28;20221;-79
2022/07/09 00:16:31;;;;;;;3.15;1.85;;;16.30;99.90;;;;;;5018801;28;20229;-78
2022/07/09 00:19:21;;;;;;;3.83;2.15;;;16.40;99.90;;;;;;5004745;28;20554;-78
2022/07/09 00:22:10;;;;;;;3.22;2.00;;;16.40;99.90;;;;;;5007786;28;20236;-79
2022/07/09 00:24:59;;;;;;;2.80;1.67;;;16.40;99.90;;;;;;5017761;28;20225;-78
2022/07/09 00:27:48;;;;;;;5.35;2.00;;;16.50;99.90;;;;;;5012640;28;20321;-79
2022/07/09 00:30:37;;;;;;;2.78;2.05;;;16.50;99.90;;;;;;5019317;28;20216;-79
2022/07/09 00:33:25;;;;;;;4.13;2.00;;;16.50;99.90;;;;;;5001595;28;20236;-78
2022/07/09 00:36:15;;;;;;;3.38;2.00;;;16.60;99.90;;;;;;5022404;28;20343;-78
2022/07/09 00:39:04;;;;;;;2.22;1.60;;;16.60;99.90;;;;;;5004374;28;20241;-78
2022/07/09 00:42:01;;;;;;;4.32;1.80;;;16.60;99.90;;;;;;5022370;28;20217;-77
2022/07/09 00:44:50;;;;;;;7.15;2.13;;;16.60;99.90;;;;;;5021579;28;20236;-78
2022/07/09 00:47:39;;;;;;;3.05;2.33;;;16.70;99.90;;;;;;5018099;28;20233;-78
2022/07/09 00:50:27;;;;;;;2.03;1.60;;;16.70;99.90;;;;;;5017247;28;20232;-77
2022/07/09 00:53:22;;;;;;;4.32;2.10;;;16.70;99.90;;;;;;4998337;28;20234;-79
2022/07/09 00:56:12;;;;;;;3.28;2.08;;;16.70;99.90;;;;;;5023839;28;20233;-78
2022/07/09 00:59:12;;;;;;;5.15;2.10;;;16.80;99.90;;;;;;5008138;28;20316;-77
2022/07/09 01:02:01;;;;;;;3.42;2.13;;;16.80;99.90;;;;;;5004914;28;20230;-78
2022/07/09 01:04:50;;;;;;;2.83;1.90;;;16.80;99.90;;;;;;5014444;28;20775;-78
2022/07/09 01:07:39;;;;;;;3.53;1.75;;;16.80;99.90;;;;;;5022358;28;20233;-78
2022/07/09 01:10:29;;;;;;;2.90;2.03;;;16.70;99.90;;;;;;5006997;28;20260;-79
2022/07/09 01:13:17;;;;;;;6.57;2.15;;;16.70;99.90;;;;;;5021868;28;20221;-78
2022/07/09 01:16:13;;;;;;;4.72;1.88;;;16.70;99.90;;;;;;5016979;28;20257;-78
2022/07/09 01:19:02;;;;;;;5.00;1.92;;;16.60;99.90;;;;;;5013507;28;20239;-78
2022/07/09 01:21:52;;;;;;;3.85;2.40;;;16.70;99.90;;;;;;5009363;28;20328;-78
2022/07/09 01:24:40;;;;;;;6.35;2.47;;;16.70;99.90;;;;;;5017804;28;20218;-78
2022/07/09 01:27:29;;;;;;;6.32;2.30;;;16.80;99.90;;;;;;5023266;28;20255;-78
2022/07/09 01:30:26;;;;;;;5.13;2.28;;;16.90;99.90;;;;;;5022208;28;20232;-78
2022/07/09 01:33:14;;;;;;;4.22;2.17;;;16.90;99.90;;;;;;5020310;28;23678;-77
2022/07/09 01:36:02;;;;;;;5.57;2.40;;;16.80;99.90;;;;;;5004298;28;20229;-77
2022/07/09 01:38:52;;;;;;;6.07;2.85;;;16.80;99.90;;;;;;5021501;28;20222;-78
2022/07/09 01:41:41;;;;;;;4.63;2.15;;;16.80;99.90;;;;;;5009915;28;20316;-78
2022/07/09 01:44:30;;;;;;;3.50;2.40;;;16.90;99.90;;;;;;5011432;28;20221;-78
2022/07/09 01:47:22;;;;;;;7.28;2.60;;;16.80;99.90;;;;;;5008910;28;20224;-78
2022/07/09 01:50:11;;;;;;;3.10;2.40;;;16.80;99.90;;;;;;5017782;28;20225;-78
2022/07/09 01:52:59;;;;;;;5.57;2.25;;;16.80;99.90;;;;;;5021134;28;20252;-78
2022/07/09 01:55:49;;;;;;;9.20;2.67;;;16.80;99.90;;;;;;5020900;28;20589;-78
2022/07/09 01:58:38;;;;;;;4.57;2.70;;;16.80;99.90;;;;;;5013672;28;20229;-77
2022/07/09 02:01:27;;;;;;;10.45;3.28;;;16.80;99.90;;;;;;5011906;28;20226;-77
2022/07/09 02:04:15;;;;;;;3.40;2.20;;;16.80;99.90;;;;;;5022382;28;20226;-77
2022/07/09 02:07:05;;;;;;;5.43;2.97;;;16.80;99.90;;;;;;5020300;28;20257;-71
2022/07/09 02:09:53;;;;;;;11.38;5.50;;;16.80;99.90;;;;;;5023861;28;20228;-76
2022/07/09 02:12:43;;;;;;;8.10;3.22;;;16.80;99.90;;;;;;5009187;28;20255;-77
2022/07/09 02:15:32;;;;;;;8.82;2.47;;;16.80;99.90;;;;;;5015729;28;20688;-76
2022/07/09 02:18:20;;;;;;;5.72;2.65;;;16.80;99.90;;;;;;5024375;28;20570;-78
2022/07/09 02:21:09;;;;;;;7.38;2.45;;;16.80;99.90;;;;;;5022563;28;20263;-77
2022/07/09 02:23:58;;;;;;;6.75;2.42;;;16.70;99.90;;;;;;5006708;28;20214;-80
2022/07/09 02:26:47;;;;;;;3.90;2.53;;;16.70;99.90;;;;;;5022337;28;20377;-80
2022/07/09 02:29:37;;;;;;;3.75;2.22;;;16.70;99.90;;;;;;5024954;28;20222;-79
2022/07/09 02:32:25;;;;;;;6.05;2.20;;;16.70;99.90;;;;;;5026327;28;20229;-80
2022/07/09 02:35:14;;;;;;;4.43;2.28;;;16.70;99.90;;;;;;5020791;28;20252;-79
2022/07/09 02:38:02;;;;;;;5.07;2.38;;;16.70;99.90;;;;;;5010093;28;20232;-78
2022/07/09 02:40:51;;;;;;;9.32;2.58;;;16.70;99.90;;;;;;5025911;28;20580;-79
2022/07/09 02:43:42;;;;;;;5.60;2.50;;;16.60;99.90;;;;;;5030166;28;20230;-79
2022/07/09 02:46:32;;;;;;;7.35;2.70;;;16.60;99.90;;;;;;5022867;28;20222;-80
2022/07/09 02:49:21;;;;;;;6.07;2.22;;;16.70;99.90;;;;;;5021205;28;20233;-79
2022/07/09 02:52:09;;;;;;;4.15;2.30;;;16.60;99.90;;;;;;5018819;28;20233;-78
2022/07/09 02:54:58;;;;;;;7.65;2.70;;;16.60;99.90;;;;;;5022136;28;20221;-78
2022/07/09 02:57:46;;;;;;;4.07;2.45;;;16.60;99.90;;;;;;5021750;28;20643;-77
2022/07/09 03:00:35;;;;;;;9.75;2.83;;;16.70;99.90;;;;;;5007249;28;20221;-77
2022/07/09 03:03:29;;;;;;;4.57;2.47;;;16.60;99.90;;;;;;5019975;28;20226;-77
2022/07/09 03:06:17;;;;;;;4.88;2.35;;;16.60;99.90;;;;;;5024888;28;20236;-77
2022/07/09 03:09:06;;;;;;;5.85;2.85;;;16.50;99.90;;;;;;5009940;28;20572;-77
2022/07/09 03:11:55;;;;;;;8.63;3.03;;;16.40;99.90;;;;;;5025214;28;20236;-76
2022/07/09 03:14:43;;;;;;;4.20;2.58;;;16.40;99.90;;;;;;5022874;28;20217;-78
2022/07/09 03:17:32;;;;;;;5.28;2.83;;;16.40;99.90;;;;;;5008661;28;20612;-76
2022/07/09 03:20:22;;;;;;;7.75;2.83;;;16.40;99.90;;;;;;5010154;28;20323;-79
2022/07/09 03:23:13;;;;;;;8.55;2.60;;;16.30;99.90;;;;;;5022755;28;20256;-79
2022/07/09 03:26:01;;;;;;;9.27;2.88;;;16.40;99.90;;;;;;5010507;28;20679;-79
2022/07/09 03:28:50;;;;;;;6.78;2.90;;;16.40;99.90;;;;;;5019667;28;20512;-79
2022/07/09 03:31:38;;;;;;;5.25;2.33;;;16.40;99.90;;;;;;5011289;28;20225;-79
2022/07/09 03:34:27;;;;;;;4.03;2.30;;;16.40;99.90;;;;;;5024996;28;20222;-79
2022/07/09 03:37:16;;;;;;;6.20;3.92;;;16.40;99.90;;;;;;5008733;28;20237;-79
2022/07/09 03:40:06;;;;;;;8.25;2.92;;;16.40;99.90;;;;;;5013770;28;20226;-79
2022/07/09 03:42:58;;;;;;;6.50;2.15;;;16.50;99.90;;;;;;5022844;28;20222;-78
2022/07/09 03:45:47;;;;;;;12.63;3.15;;;16.30;99.90;;;;;;5021989;28;20241;-77
2022/07/09 03:48:36;;;;;;;7.32;2.53;;;16.40;99.90;;;;;;5019040;28;20728;-77
2022/07/09 03:51:29;;;;;;;5.55;2.60;;;16.30;99.90;;;;;;5023326;28;20221;-77
2022/07/09 03:54:22;;;;;;;5.65;2.83;;;16.40;99.90;;;;;;5020927;28;20719;-77
2022/07/09 03:57:11;;;;;;;6.00;2.70;;;16.40;99.90;;;;;;5007701;28;20236;-77
2022/07/09 03:59:59;;;;;;;6.97;3.20;;;16.40;99.90;;;;;;5019081;28;20234;-76
2022/07/09 04:02:48;;;;;;;8.32;3.65;;;16.50;99.90;;;;;;5009939;28;20316;-76
2022/07/09 04:05:37;;;;;;;11.07;3.60;;;16.40;99.90;;;;;;5009116;28;20217;-79
2022/07/09 04:08:29;;;;;;;10.20;2.75;;;16.60;99.90;;;;;;5017769;28;20229;-78
2022/07/09 04:11:19;;;;;;;4.95;2.72;;;16.60;99.90;;;;;;5018877;28;20232;-76
2022/07/09 04:14:08;;;;;;;9.30;2.90;;;16.60;99.90;;;;;;5021768;28;20218;-76
2022/07/09 04:16:57;;;;;;;4.72;2.33;;;16.70;99.90;;;;;;5018713;28;20225;-76
2022/07/09 04:19:45;;;;;;;6.47;2.70;;;16.80;99.90;;;;;;5023638;28;20332;-75
2022/07/09 04:22:37;;;;;;;4.35;2.65;;;16.80;99.90;;;;;;5020925;28;20259;-76
2022/07/09 04:25:29;;;;;;;4.45;2.50;;;16.90;99.90;;;;;;5008322;28;20226;-76
2022/07/09 04:28:19;;;;;;;3.38;2.20;;;16.90;99.90;;;;;;5021416;28;20263;-76
2022/07/09 04:31:07;;;;;;;4.97;2.13;;;16.90;99.90;;;;;;5016737;28;20686;-76
2022/07/09 04:33:56;;;;;;;4.25;2.25;;;17.00;99.90;;;;;;5011145;28;20264;-75
2022/07/09 04:36:45;;;;;;;4.35;2.65;;;17.00;99.90;;;;;;5010042;28;20227;-76
2022/07/09 04:39:34;;;;;;;5.10;2.35;;;17.20;99.90;;;;;;5015088;28;20224;-76
2022/07/09 04:42:22;;;;;;;4.25;2.15;;;17.20;99.90;;;;;;5011791;28;20237;-76
2022/07/09 04:45:13;;;;;;;6.82;2.70;;;17.30;99.90;;;;;;5016254;28;20214;-76
2022/07/09 04:48:01;;;;;;;4.13;2.45;;;17.20;99.90;;;;;;5020707;28;20218;-76
2022/07/09 04:50:50;;;;;;;6.25;2.92;;;17.40;99.90;;;;;;4999077;28;20245;-76
2022/07/09 04:53:38;;;;;;;4.30;2.33;;;17.50;99.90;;;;;;4998698;28;20242;-76
2022/07/09 04:56:27;;;;;;;6.75;2.90;;;17.40;99.90;;;;;;5003814;28;20914;-77
2022/07/09 04:59:16;;;;;;;5.18;2.50;;;17.50;99.90;;;;;;4998031;28;20740;-76
2022/07/09 05:02:06;;;;;;;6.20;2.80;;;17.80;99.90;;;;;;4989059;28;20892;-78
2022/07/09 05:04:55;;;;;;;4.82;2.80;;;17.60;99.90;;;;;;5000188;28;20230;-76
2022/07/09 05:07:43;;;;;;;5.20;2.55;;;17.60;99.90;;;;;;5003456;28;20230;-78
2022/07/09 05:10:32;;;;;;;5.82;2.80;;;17.60;99.90;;;;;;5003633;28;20229;-78
2022/07/09 05:13:20;;;;;;;4.10;2.80;;;17.70;99.90;;;;;;4998834;28;20231;-79
2022/07/09 05:16:09;;;;;;;8.65;3.00;;;17.80;99.90;;;;;;4998919;28;20623;-79
2022/07/09 05:18:59;;;;;;;6.53;3.28;;;17.80;99.90;;;;;;4997530;28;20249;-79
2022/07/09 05:21:47;;;;;;;5.32;2.60;;;17.80;99.90;;;;;;5002313;28;20226;-79
2022/07/09 05:24:40;;;;;;;7.57;3.03;;;17.90;99.90;;;;;;4996017;28;20226;-79
2022/07/09 05:27:29;;;;;;;8.15;3.28;;;17.70;99.90;;;;;;5001010;28;20736;-78
2022/07/09 05:30:17;;;;;;;7.07;3.13;;;17.70;99.90;;;;;;4997734;28;20638;-79
2022/07/09 05:33:08;;;;;;;4.63;2.65;;;17.70;99.90;;;;;;4999839;28;20270;-78
2022/07/09 05:35:58;;;;;;;4.72;2.80;;;17.70;99.90;;;;;;5001864;28;20229;-78
2022/07/09 05:38:47;;;;;;;6.75;3.00;;;17.70;99.90;;;;;;5004022;28;20241;-79
2022/07/09 05:41:35;;;;;;;6.35;3.05;;;17.70;99.90;;;;;;5028850;28;20237;-75
2022/07/09 05:44:24;;;;;;;7.78;2.80;;;17.90;99.90;;;;;;4997303;28;20230;-76
2022/07/09 05:47:15;;;;;;;5.60;2.50;;;18.00;99.90;;;;;;4984641;28;20265;-74
2022/07/09 05:50:07;;;;;;;4.72;2.75;;;18.10;99.90;;;;;;5007870;28;20313;-75
2022/07/09 05:52:57;;;;;;;8.07;3.75;;;18.10;99.90;;;;;;5015739;28;20225;-74
2022/07/09 05:55:46;;;;;;;8.38;2.80;;;18.30;99.90;;;;;;5014072;28;20225;-76
2022/07/09 05:58:35;;;;;;;6.90;2.33;;;18.50;99.90;;;;;;4998729;28;20221;-79
2022/07/09 06:01:25;;;;;;;7.47;2.78;;;18.50;99.90;;;;;;5020102;28;20225;-76
2022/07/09 06:04:14;;;;;;;5.88;2.75;;;18.80;99.90;;;;;;5019575;28;20225;-78
2022/07/09 06:07:04;;;;;;;7.25;3.00;;;18.90;99.90;;;;;;5017410;28;20348;-78
2022/07/09 06:09:54;;;;;;;6.50;3.05;;;19.10;99.90;;;;;;5018803;28;20221;-77
2022/07/09 06:12:46;;;;;;;6.47;2.88;;;19.50;99.90;;;;;;5023410;28;20225;-78
2022/07/09 06:15:34;;;;;;;5.05;3.20;;;19.50;99.90;;;;;;5024413;28;20232;-79
2022/07/09 06:18:23;;;;;;;7.53;2.92;;;19.50;99.90;;;;;;5025640;28;20245;-78
2022/07/09 06:21:12;;;;;;;5.45;3.13;;;19.50;99.90;;;;;;5020280;28;20214;-76
2022/07/09 06:24:00;;;;;;;4.80;3.00;;;19.50;99.90;;;;;;5015470;28;20728;-76
2022/07/09 06:26:50;;;;;;;5.78;3.05;;;19.40;99.90;;;;;;5003438;28;20213;-79
2022/07/09 06:29:38;;;;;;;4.45;2.85;;;19.40;99.90;;;;;;5013760;28;20229;-79
2022/07/09 06:32:27;;;;;;;3.78;2.60;;;19.50;99.90;;;;;;5028685;28;20225;-76
2022/07/09 06:35:16;;;;;;;2.85;2.28;;;19.40;99.90;;;;;;5017799;28;20306;-75
2022/07/09 06:38:05;;;;;;;6.25;2.80;;;19.60;99.90;;;;;;5012740;28;20236;-78
2022/07/09 06:40:55;;;;;;;6.53;2.88;;;19.50;99.90;;;;;;5003028;28;20225;-76
2022/07/09 06:43:45;;;;;;;4.80;2.75;;;19.20;99.90;;;;;;5004173;28;20221;-76
2022/07/09 06:46:35;;;;;;;4.25;2.70;;;19.30;99.90;;;;;;5028814;28;20596;-76
2022/07/09 06:49:24;;;;;;;4.00;3.30;;;19.20;99.90;;;;;;5013994;28;20225;-76
2022/07/09 06:52:13;;;;;;;4.20;3.42;;;19.20;99.90;;;;;;4999889;28;20222;-76
2022/07/09 06:55:01;;;;;;;7.47;3.28;;;19.30;99.90;;;;;;5012918;28;20218;-74
2022/07/09 06:57:50;;;;;;;4.22;3.83;;;19.20;99.90;;;;;;5014415;28;20233;-77
2022/07/09 07:00:40;;;;;;;4.13;3.33;;;19.30;99.90;;;;;;5016428;28;21186;-78
2022/07/09 07:03:33;;;;;;;6.60;3.55;;;19.20;99.90;;;;;;5009869;28;20226;-77
2022/07/09 07:06:22;;;;;;;5.03;3.50;;;19.40;99.90;;;;;;5019863;28;20324;-77
2022/07/09 07:09:10;;;;;;;6.80;3.63;;;19.70;99.90;;;;;;5016531;28;20423;-79
2022/07/09 07:11:59;;;;;;;3.40;3.10;;;19.70;99.90;;;;;;5014081;28;20732;-78
2022/07/09 07:14:47;;;;;;;3.50;2.80;;;19.80;99.90;;;;;;5012823;28;20574;-80
2022/07/09 07:17:37;;;;;;;4.13;3.10;;;19.80;99.90;;;;;;5013503;28;20296;-79
2022/07/09 07:20:26;;;;;;;3.20;2.90;;;20.00;99.90;;;;;;5022551;28;20225;-79
2022/07/09 07:23:16;;;;;;;4.65;2.35;;;19.90;99.90;;;;;;5015838;28;20233;-78
2022/07/09 07:26:05;;;;;;;3.40;2.15;;;19.80;99.90;;;;;;5014817;28;20222;-80
2022/07/09 07:28:54;;;;;;;2.72;2.35;;;19.70;99.90;;;;;;5020158;28;20262;-78
2022/07/09 07:31:42;;;;;;;4.18;2.25;;;19.90;99.90;;;;;;5019283;28;20221;-78
2022/07/09 07:34:32;;;;;;;5.00;2.30;;;20.60;99.90;;;;;;5021044;28;20261;-78
2022/07/09 07:37:21;;;;;;;3.65;2.40;;;20.80;99.90;;;;;;5018692;28;20314;-78
2022/07/09 07:40:11;;;;;;;5.50;2.30;;;21.20;99.90;;;;;;5018034;28;20221;-78
2022/07/09 07:43:00;;;;;;;2.25;2.00;;;21.40;99.90;;;;;;5017955;28;20230;-77
2022/07/09 07:45:49;;;;;;;3.60;1.60;;;21.40;99.90;;;;;;5019181;28;20241;-76
2022/07/09 07:48:40;;;;;;;2.28;1.50;;;21.70;99.90;;;;;;5015621;28;20245;-77
2022/07/09 07:51:31;;;;;;;3.05;1.52;;;21.90;99.90;;;;;;5012858;28;20233;-77
2022/07/09 07:54:19;;;;;;;3.22;1.60;;;21.80;99.90;;;;;;5012261;28;20230;-77
2022/07/09 07:57:08;;;;;;;4.10;1.55;;;21.40;99.90;;;;;;5012923;28;20221;-77
2022/07/09 07:59:56;;;;;;;2.75;1.65;;;21.50;99.90;;;;;;5015741;28;20265;-77
2022/07/09 08:02:48;;;;;;;3.53;1.60;;;21.80;99.90;;;;;;5012505;28;20218;-79
2022/07/09 08:05:37;;;;;;;3.25;1.58;;;21.70;99.90;;;;;;5016403;28;20327;-78
2022/07/09 08:08:30;;;;;;;2.92;1.50;;;21.70;99.90;;;;;;5014785;28;20317;-78
2022/07/09 08:11:19;;;;;;;4.60;1.83;;;21.80;99.90;;;;;;5020628;28;20261;-78
2022/07/09 08:14:08;;;;;;;1.70;1.40;;;21.90;99.90;;;;;;5014645;28;20308;-78
2022/07/09 08:16:57;;;;;;;3.88;1.55;;;22.60;99.90;;;;;;5013935;28;20731;-78
2022/07/09 08:19:46;;;;;;;3.55;1.40;;;23.50;99.90;;;;;;5003026;28;20225;-78
2022/07/09 08:22:34;;;;;;;3.75;1.45;;;23.50;99.90;;;;;;5017539;28;20228;-77
2022/07/09 08:25:24;;;;;;;2.30;1.27;;;24.50;99.90;;;;;;5021035;28;20213;-78
2022/07/09 08:28:13;;;;;;;5.50;1.67;;;24.30;99.90;;;;;;5038611;28;20225;-76
2022/07/09 08:31:01;;;;;;;4.63;1.30;;;23.50;99.90;;;;;;5026308;28;20225;-78
2022/07/09 08:33:51;;;;;;;4.03;1.65;;;24.00;99.90;;;;;;5020895;28;20568;-75
2022/07/09 08:36:39;;;;;;;1.42;1.27;;;24.90;99.90;;;;;;5010263;28;20252;-77
2022/07/09 08:39:28;;;;;;;2.13;1.20;;;25.00;99.90;;;;;;5007560;28;20226;-82
2022/07/09 08:42:22;;;;;;;2.13;1.40;;;25.70;99.90;;;;;;5019219;28;20695;-77
2022/07/09 08:45:13;;;;;;;6.40;1.65;;;26.50;99.90;;;;;;5020548;28;20213;-75
2022/07/09 08:48:02;;;;;;;2.22;1.35;;;26.80;95.80;;;;;;5016758;28;20224;-77
2022/07/09 08:50:52;;;;;;;1.90;1.00;;;27.10;97.30;;;;;;5004437;28;20218;-75
2022/07/09 08:53:42;;;;;;;4.38;2.13;;;27.20;94.00;;;;;;5017850;28;20218;-74
2022/07/09 08:56:31;;;;;;;4.88;1.38;;;27.30;95.00;;;;;;5019244;28;20232;-75
2022/07/09 08:59:21;;;;;;;2.55;1.13;;;27.40;90.20;;;;;;5022597;28;20228;-75
2022/07/09 09:02:12;;;;;;;1.40;1.02;;;27.30;91.30;;;;;;5020172;28;20229;-74
2022/07/09 09:05:00;;;;;;;3.03;1.23;;;27.10;90.00;;;;;;5020697;28;20237;-76
2022/07/09 09:07:49;;;;;;;1.92;1.20;;;27.60;89.70;;;;;;5006792;28;20684;-76
2022/07/09 09:10:38;;;;;;;2.55;1.00;;;28.90;86.60;;;;;;5011362;28;20427;-76
2022/07/09 09:13:27;;;;;;;6.57;1.10;;;29.10;81.00;;;;;;5020934;28;20217;-74
2022/07/09 09:16:18;;;;;;;2.05;1.17;;;27.40;81.20;;;;;;5018401;28;20273;-74
2022/07/09 09:19:07;;;;;;;2.15;1.20;;;28.30;81.50;;;;;;5021748;28;20279;-73
2022/07/09 09:21:56;;;;;;;4.82;1.42;;;30.00;76.50;;;;;;5018200;28;20237;-77
2022/07/09 09:24:50;;;;;;;1.70;1.15;;;31.20;72.10;;;;;;5016150;28;20303;-76
2022/07/09 09:27:38;;;;;;;2.00;1.10;;;32.10;67.80;;;;;;5007671;28;20221;-76
2022/07/09 09:30:30;;;;;;;2.25;1.27;;;32.60;62.50;;;;;;5018111;28;20240;-76
2022/07/09 09:33:20;;;;;;;2.83;1.13;;;32.90;62.30;;;;;;5019812;28;20220;-76
2022/07/09 09:36:09;;;;;;;1.35;1.13;;;31.30;66.10;;;;;;5021651;28;20239;-76
2022/07/09 09:39:15;;;;;;;1.90;1.20;;;30.40;66.20;;;;;;5021058;28;20225;-76
2022/07/09 09:42:04;;;;;;;1.92;1.10;;;30.30;66.30;;;;;;5025481;28;20308;-76
2022/07/09 09:44:57;;;;;;;3.90;1.42;;;30.10;64.80;;;;;;5004741;28;20236;-76
2022/07/09 09:47:48;;;;;;;6.03;1.40;;;28.40;66.30;;;;;;5021400;28;20233;-77
2022/07/09 09:50:42;;;;;;;4.85;1.50;;;27.10;73.10;;;;;;5013758;28;20290;-75
2022/07/09 09:53:32;;;;;;;4.40;1.38;;;26.70;77.50;;;;;;5011363;28;20218;-75
2022/07/09 09:56:22;;;;;;;3.10;1.48;;;26.50;77.20;;;;;;5017228;28;20228;-72
2022/07/09 09:59:11;;;;;;;4.93;1.13;;;27.10;77.40;;;;;;5014899;28;20235;-73
2022/07/09 10:02:00;;;;;;;1.75;1.20;;;28.70;72.20;;;;;;5014707;28;20656;-74
2022/07/09 10:04:48;;;;;;;1.50;1.35;;;30.80;69.30;;;;;;5013981;28;20221;-75
2022/07/09 10:07:39;;;;;;;3.38;1.17;;;32.90;62.90;;;;;;5011981;28;20230;-77
2022/07/09 10:10:28;;;;;;;3.05;1.50;;;34.10;57.00;;;;;;5013729;28;20236;-77
2022/07/09 10:13:24;;;;;;;4.70;1.50;;;35.50;56.80;;;;;;5017730;28;20245;-77
2022/07/09 10:16:12;;;;;;;5.82;1.58;;;34.80;52.60;;;;;;5018200;28;20233;-77
2022/07/09 10:19:01;;;;;;;3.53;1.35;;;35.50;53.30;;;;;;5006370;28;20232;-77
2022/07/09 10:21:53;;;;;;;3.35;1.27;;;36.20;53.70;;;;;;5014259;28;20225;-77
2022/07/09 10:24:46;;;;;;;3.20;1.10;;;34.90;53.50;;;;;;5005543;28;20231;-76
2022/07/09 10:27:46;;;;;;;3.22;1.33;;;32.70;57.00;;;;;;5007582;28;20312;-76
2022/07/09 10:30:35;;;;;;;4.07;1.80;;;30.30;59.30;;;;;;5018559;28;20219;-76
2022/07/09 10:33:25;;;;;;;3.30;1.17;;;31.10;62.00;;;;;;5020043;28;20216;-77
2022/07/09 10:36:16;;;;;;;2.63;1.23;;;34.40;57.80;;;;;;5022200;28;20221;-78
2022/07/09 10:39:13;;;;;;;1.85;1.20;;;35.10;54.90;;;;;;5012206;28;20237;-78
2022/07/09 10:42:05;;;;;;;4.60;1.20;;;36.40;51.80;;;;;;5021612;28;20243;-77
2022/07/09 10:44:54;;;;;;;2.30;1.30;;;37.20;47.90;;;;;;5003437;28;20222;-77
2022/07/09 10:47:42;;;;;;;4.72;1.35;;;37.90;48.50;;;;;;5015977;28;20221;-76
2022/07/09 10:50:32;;;;;;;1.63;1.10;;;38.40;48.30;;;;;;5005860;28;20599;-74
2022/07/09 10:53:30;;;;;;;1.88;1.23;;;38.60;43.90;;;;;;5020506;28;20225;-74
2022/07/09 10:56:19;;;;;;;4.82;1.88;;;38.30;46.00;;;;;;5019047;28;20541;-75
2022/07/09 10:59:09;;;;;;;4.03;1.60;;;36.60;46.70;;;;;;5018906;28;20217;-76
2022/07/09 11:01:58;;;;;;;2.40;1.20;;;36.20;49.80;;;;;;5015911;28;20214;-72
2022/07/09 11:04:51;;;;;;;3.97;1.10;;;36.60;47.70;;;;;;5004899;28;20240;-75
2022/07/09 11:07:40;;;;;;;3.08;1.20;;;34.50;48.60;;;;;;5020880;28;20277;-74
2022/07/09 11:10:29;;;;;;;3.20;1.20;;;33.50;51.40;;;;;;5024115;28;20251;-74
2022/07/09 11:13:18;;;;;;;2.63;1.10;;;34.70;51.40;;;;;;5018499;28;20221;-76
2022/07/09 11:16:08;;;;;;;2.85;1.13;;;35.30;49.20;;;;;;5006247;28;20219;-77
2022/07/09 11:18:57;;;;;;;3.85;0.95;;;35.40;47.50;;;;;;5017510;28;20304;-76
2022/07/09 11:21:46;;;;;;;2.00;1.23;;;36.20;46.90;;;;;;5018892;28;20221;-76
2022/07/09 11:24:35;;;;;;;2.95;1.27;;;36.60;46.20;;;;;;5005115;28;20220;-76
2022/07/09 11:27:23;;;;;;;2.15;1.13;;;35.70;46.40;;;;;;5018840;28;20614;-75
2022/07/09 11:30:15;;;;;;;2.35;1.15;;;34.90;49.10;;;;;;5007661;28;20217;-77
2022/07/09 11:33:05;;;;;;;8.27;2.17;;;35.40;47.10;;;;;;5021307;28;20581;-78
2022/07/09 11:35:54;;;;;;;12.05;2.03;;;36.10;46.80;;;;;;5022273;28;20269;-76
2022/07/09 11:38:48;;;;;;;44.10;7.35;;;33.50;47.40;;;;;;5016534;28;20217;-79
2022/07/09 11:41:43;;;;;;;6.88;1.92;;;33.00;49.70;;;;;;5021474;28;20218;-74
2022/07/09 11:44:33;;;;;;;3.13;1.20;;;33.80;49.40;;;;;;5007797;28;20216;-77
2022/07/09 11:47:32;;;;;;;2.67;1.10;;;32.20;49.00;;;;;;5022383;28;20225;-78
2022/07/09 11:50:22;;;;;;;3.42;1.13;;;31.10;53.10;;;;;;5037569;28;20221;-78
2022/07/09 11:53:20;;;;;;;3.05;1.33;;;31.40;52.60;;;;;;5024206;28;20228;-76
2022/07/09 11:56:09;;;;;;;4.07;1.30;;;33.60;50.60;;;;;;5021337;28;20861;-77
2022/07/09 11:58:58;;;;;;;1.85;1.00;;;35.20;46.60;;;;;;5014083;28;20723;-79
2022/07/09 12:01:46;;;;;;;3.67;1.10;;;37.30;47.50;;;;;;5016718;28;20248;-77
2022/07/09 12:04:35;;;;;;;2.63;1.05;;;35.80;45.60;;;;;;5018101;28;20561;-78
2022/07/09 12:07:28;;;;;;;2.65;1.20;;;33.70;46.60;;;;;;4999252;28;20226;-77
2022/07/09 12:10:17;;;;;;;3.38;1.35;;;33.70;47.90;;;;;;5005451;28;20228;-78
2022/07/09 12:13:08;;;;;;;3.58;1.20;;;34.10;48.90;;;;;;5012307;28;20225;-78
2022/07/09 12:15:57;;;;;;;2.35;1.30;;;32.90;50.00;;;;;;5012205;28;20256;-76
2022/07/09 12:18:49;;;;;;;2.17;1.10;;;31.30;52.20;;;;;;5010503;28;20237;-77
2022/07/09 12:21:37;;;;;;;1.95;1.10;;;29.90;53.80;;;;;;5005204;28;20715;-78
2022/07/09 12:24:27;;;;;;;6.68;1.73;;;29.30;55.90;;;;;;5008963;28;20217;-77
2022/07/09 12:27:16;;;;;;;3.38;1.40;;;28.40;58.00;;;;;;5011890;28;20228;-77
2022/07/09 12:30:11;;;;;;;3.80;1.27;;;28.00;59.90;;;;;;5023059;28;20783;-76
2022/07/09 12:33:00;;;;;;;3.95;1.75;;;27.50;61.60;;;;;;5005615;28;20220;-76
2022/07/09 12:35:48;;;;;;;2.92;1.58;;;27.40;61.60;;;;;;5017399;28;20229;-77
2022/07/09 12:38:37;;;;;;;3.70;1.35;;;27.60;62.70;;;;;;5020933;28;20236;-76
2022/07/09 12:41:30;;;;;;;1.73;1.35;;;27.60;63.10;;;;;;5018934;28;20277;-77
2022/07/09 12:44:19;;;;;;;4.28;1.33;;;28.00;59.20;;;;;;5023173;28;20678;-77
2022/07/09 12:47:07;;;;;;;2.75;1.27;;;27.80;60.40;;;;;;5007699;28;20541;-77
2022/07/09 12:49:56;;;;;;;2.15;1.35;;;27.70;60.10;;;;;;5016671;28;20229;-76
2022/07/09 12:52:45;;;;;;;1.55;1.42;;;27.50;63.20;;;;;;5017604;28;20237;-75
2022/07/09 12:55:34;;;;;;;2.72;1.60;;;27.60;60.70;;;;;;5017855;28;20236;-77
2022/07/09 12:58:44;;;;;;;3.65;1.92;;;27.80;59.50;;;;;;5015149;28;20225;-78
2022/07/09 13:01:32;;;;;;;4.35;1.50;;;28.00;61.00;;;;;;5000099;28;20236;-78
2022/07/09 13:04:21;;;;;;;3.42;1.30;;;27.90;60.40;;;;;;5012835;28;20711;-77
2022/07/09 13:07:09;;;;;;;1.88;1.40;;;27.70;59.60;;;;;;5018987;28;20282;-77
2022/07/09 13:09:58;;;;;;;2.13;1.42;;;27.40;60.50;;;;;;5018450;28;20228;-77
2022/07/09 13:12:47;;;;;;;3.33;1.58;;;27.10;60.90;;;;;;5004053;28;20236;-77
2022/07/09 13:15:37;;;;;;;2.80;1.45;;;26.70;62.70;;;;;;5017770;28;20228;-77
2022/07/09 13:18:29;;;;;;;2.88;1.40;;;26.40;63.70;;;;;;5020327;28;20307;-77
2022/07/09 13:21:18;;;;;;;2.92;1.40;;;26.10;64.30;;;;;;5015892;28;20356;-78
2022/07/09 13:24:07;;;;;;;2.42;1.35;;;26.00;64.10;;;;;;5013306;28;20225;-77
2022/07/09 13:26:56;;;;;;;9.05;1.80;;;26.00;64.40;;;;;;5010786;28;20237;-77
2022/07/09 13:29:44;;;;;;;8.45;1.60;;;26.00;66.00;;;;;;5012032;28;20241;-77
2022/07/09 13:32:34;;;;;;;3.55;1.63;;;25.60;68.00;;;;;;5019944;28;20248;-77
2022/07/09 13:35:24;;;;;;;5.88;1.70;;;25.50;70.50;;;;;;5017468;28;20592;-77
2022/07/09 13:38:12;;;;;;;2.33;1.88;;;25.20;71.10;;;;;;5006341;28;20343;-77
2022/07/09 13:41:07;;;;;;;2.58;1.83;;;25.00;70.70;;;;;;5014417;28;20236;-78
2022/07/09 13:43:56;;;;;;;3.47;2.03;;;25.00;72.10;;;;;;5014785;28;20821;-77
2022/07/09 13:46:45;;;;;;;3.28;1.90;;;25.20;72.60;;;;;;5003245;28;20590;-77
2022/07/09 13:49:34;;;;;;;3.65;1.85;;;25.00;71.50;;;;;;5018033;28;20229;-77
2022/07/09 13:52:23;;;;;;;3.63;1.90;;;25.20;72.20;;;;;;5018903;28;20220;-77
2022/07/09 13:55:12;;;;;;;2.58;1.80;;;25.20;72.50;;;;;;5013342;28;20247;-78
2022/07/09 13:58:00;;;;;;;12.70;2.38;;;25.10;71.60;;;;;;4999777;28;20225;-77
2022/07/09 14:00:49;;;;;;;3.05;2.10;;;24.90;72.60;;;;;;5014123;28;20226;-76
2022/07/09 14:03:37;;;;;;;2.05;1.88;;;24.70;73.60;;;;;;5008535;28;20559;-76
2022/07/09 14:06:31;;;;;;;3.22;2.30;;;24.60;74.60;;;;;;5025704;28;20241;-78
2022/07/09 14:09:36;;;;;;;6.50;3.88;;;24.40;73.70;;;;;;5019571;28;20704;-77
2022/07/09 14:12:28;;;;;;;4.47;2.30;;;24.20;75.90;;;;;;5019709;28;20617;-77
2022/07/09 14:15:17;;;;;;;3.20;2.00;;;24.20;75.30;;;;;;5025165;28;20225;-76
2022/07/09 14:18:08;;;;;;;2.92;1.90;;;24.20;75.60;;;;;;5021011;28;20217;-77
2022/07/09 14:20:56;;;;;;;3.95;2.05;;;24.40;75.10;;;;;;5008875;28;20225;-77
2022/07/09 14:23:48;;;;;;;3.80;2.00;;;24.40;74.70;;;;;;5023800;28;20232;-77
2022/07/09 14:26:36;;;;;;;2.75;1.98;;;24.40;75.80;;;;;;5016235;28;20627;-77
2022/07/09 14:29:25;;;;;;;5.40;2.60;;;24.20;75.10;;;;;;5024815;28;20213;-77
2022/07/09 14:32:13;;;;;;;2.28;1.90;;;24.20;74.90;;;;;;5019045;28;20228;-77
2022/07/09 14:35:02;;;;;;;5.10;1.80;;;24.30;76.30;;;;;;5021381;28;20564;-76
2022/07/09 14:37:52;;;;;;;5.72;1.90;;;24.30;76.70;;;;;;5010096;28;20297;-78
2022/07/09 14:40:42;;;;;;;3.13;1.98;;;24.30;77.10;;;;;;5012418;28;20229;-77
2022/07/09 14:43:38;;;;;;;5.03;1.90;;;24.10;76.20;;;;;;5019214;28;20226;-79